Time;durP1;ratioP1;P1;durP2;ratioP2;P2;SDS_P1;SDS_P2;PMS_P1;PMS_P2;Temp;Humidity;BMP_temperature;BMP_pressure;BME280_temperature;BME280_humidity;BME280_pressure;Samples;Min_cycle;Max_cycle;Signal;HPM_P1;HPM_P2
2021/08/23 03:24:12;;;;;;;;;;;;;;;;;;;;;
2021/08/23 03:27:29;;;;;;;;;;;;;;;;;;;;;
2021/08/23 04:14:38;;;;;;;;;;;;;;;;;;;;;
2021/08/23 05:52:53;;;;;;;;;;;;;;;;;;;;;
2021/08/23 05:55:29;;;;;;;;;11.50;9.50;;;;;19.09;65.84;102007.84;6342822;22;71804;-87
2021/08/23 05:58:24;;;;;;;;;13.00;11.75;;;;;19.12;66.11;102010.44;6313956;22;45260;-88
2021/08/23 06:01:22;;;;;;;;;;;;;;;;;;;;;
2021/08/23 07:57:50;;;;;;;;;11.00;9.50;;;;;21.07;60.24;102042.63;6257779;22;46954;-83
2021/08/23 08:07:22;;;;;;;;;10.75;9.75;;;;;21.17;58.89;102041.47;6165848;22;45417;-80
2021/08/23 08:09:53;;;;;;;;;11.00;8.50;;;;;21.13;58.87;102042.47;6342655;22;45214;-85
2021/08/23 08:12:22;;;;;;;;;11.00;10.50;;;;;21.13;59.60;102037.97;6313872;22;48053;-82
2021/08/23 08:15:28;;;;;;;;;9.50;9.00;;;;;21.25;58.92;102050.19;6315912;22;45276;-85
2021/08/23 08:17:54;;;;;;;;;11.25;8.50;;;;;21.26;58.81;102040.34;6343372;22;45178;-85
2021/08/23 08:24:43;;;;;;;;;;;;;;;;;;;;;
2021/08/23 08:28:10;;;;;;;;;;;;;;;;;;;;;
2021/08/23 08:34:34;;;;;;;;;;;;;;;;;;;;;
2021/08/23 08:37:04;;;;;;;;;8.67;8.33;;;;;21.54;57.10;102048.50;6162606;22;74180;-83
2021/08/23 08:39:30;;;;;;;;;12.00;10.67;;;;;21.60;57.54;102045.66;6214872;22;45461;-84
2021/08/23 08:41:57;;;;;;;;;10.75;8.00;;;;;21.73;56.73;102046.16;6284406;22;45418;-83
2021/08/23 08:44:22;;;;;;;;;7.00;7.00;;;;;21.80;56.83;102028.97;6314451;22;45813;-84
2021/08/23 08:46:55;;;;;;;;;8.67;8.33;;;;;22.00;56.93;102034.63;6341271;22;45854;-84
2021/08/23 08:49:21;;;;;;;;;10.33;8.33;;;;;22.07;56.07;102034.41;6314541;22;45183;-83
2021/08/23 08:51:46;;;;;;;;;8.33;8.33;;;;;22.17;55.58;102035.91;6311784;22;45436;-83
2021/08/23 08:54:18;;;;;;;;;13.25;12.25;;;;;22.18;55.40;102029.59;6313754;22;45513;-83
2021/08/23 08:56:43;;;;;;;;;9.25;9.25;;;;;22.28;55.65;102028.41;6311115;22;46835;-83
2021/08/23 08:59:09;;;;;;;;;10.00;9.67;;;;;22.43;55.46;102038.66;6313716;22;45204;-83
2021/08/23 09:01:36;;;;;;;;;9.00;9.00;;;;;22.51;54.95;102042.88;6340945;22;45233;-83
2021/08/23 09:19:33;;;;;;;;;;;;;;;;;;;;;
2021/08/23 09:29:24;;;;;;;;;;;;;;;;;;;;;
2021/08/23 09:39:18;;;;;;;;;;;;;;;;;;;;;
2021/08/23 10:30:28;;;;;;;;;;;;;;;;;;;;;
2021/08/23 10:33:14;;;;;;;;;9.00;8.67;;;;;21.97;56.21;102053.50;6331171;22;69174;-88
2021/08/23 10:35:52;;;;;;;;;5.33;5.33;;;;;21.90;56.62;102059.94;6343369;22;45461;-88
2021/08/23 10:38:24;;;;;;;;;6.67;6.67;;;;;21.87;56.69;102057.38;6346318;22;45545;-87
2021/08/23 10:41:15;;;;;;;;;8.33;8.33;;;;;21.80;56.92;102056.66;6314201;22;45298;-84
2021/08/23 10:43:52;;;;;;;;;8.00;7.67;;;;;21.75;56.99;102055.03;6299290;22;45199;-84
2021/08/23 10:46:38;;;;;;;;;6.00;4.67;;;;;21.68;57.30;102064.16;6341838;22;45385;-85
2021/08/23 10:49:25;;;;;;;;;14.75;14.75;;;;;21.61;57.50;102059.94;6290396;22;46584;-84
2021/08/23 10:51:58;;;;;;;;;5.00;5.00;;;;;21.53;57.88;102065.50;6312613;22;45931;-85
2021/08/23 10:54:33;;;;;;;;;6.33;6.00;;;;;21.44;57.86;102057.72;6339832;22;45354;-83
2021/08/23 10:57:01;;;;;;;;;7.00;6.50;;;;;21.44;58.24;102066.66;6342375;22;45359;-84
2021/08/23 10:59:49;;;;;;;;;5.00;5.00;;;;;21.39;58.55;102055.19;6316367;22;46387;-83
2021/08/23 11:02:33;;;;;;;;;2.00;2.00;;;;;21.35;58.39;102059.69;6314022;22;46103;-83
2021/08/23 11:05:19;;;;;;;;;6.33;6.00;;;;;21.29;59.01;102051.84;6343979;22;45096;-84
2021/08/23 11:07:47;;;;;;;;;9.00;9.00;;;;;21.23;59.77;102065.41;6313663;22;45168;-85
2021/08/23 11:10:24;;;;;;;;;6.67;6.67;;;;;21.19;60.79;102071.75;6373999;22;46433;-84
2021/08/23 11:12:52;;;;;;;;;9.00;8.50;;;;;21.19;61.25;102062.84;6373183;22;45257;-86
2021/08/23 11:15:29;;;;;;;;;8.50;7.75;;;;;21.15;61.56;102057.56;6346959;22;45464;-85
2021/08/23 11:17:58;;;;;;;;;9.00;9.00;;;;;21.20;61.20;102051.19;6345108;22;45348;-86
2021/08/23 11:20:29;;;;;;;;;8.00;8.00;;;;;21.30;61.03;102056.28;6373815;22;45382;-85
2021/08/23 11:22:56;;;;;;;;;9.00;8.00;;;;;21.44;61.55;102047.00;6344495;22;45282;-85
2021/08/23 11:25:45;;;;;;;;;14.25;14.25;;;;;21.51;61.25;102049.47;6346223;22;45257;-86
2021/08/23 11:28:15;;;;;;;;;36.00;32.25;;;;;21.58;60.92;102045.69;6373823;22;45345;-85
2021/08/23 11:30:43;;;;;;;;;20.50;18.50;;;;;21.64;60.37;102043.75;6373773;22;45622;-86
2021/08/23 11:33:10;;;;;;;;;13.50;12.50;;;;;21.79;60.70;102048.69;6345490;22;45302;-84
2021/08/23 11:36:23;;;;;;;;;9.50;9.00;;;;;21.94;60.25;102040.16;6375716;22;45404;-90
2021/08/23 11:38:57;;;;;;;;;14.00;14.00;;;;;22.16;59.50;102031.44;6346471;22;45894;-86
2021/08/23 11:41:22;;;;;;;;;14.50;10.00;;;;;22.33;59.01;102039.88;6344899;22;47164;-87
2021/08/23 11:43:55;;;;;;;;;11.50;11.00;;;;;22.36;58.13;102036.22;6375955;22;45283;-88
2021/08/23 11:46:21;;;;;;;;;10.00;9.00;;;;;22.33;58.18;102029.13;6342183;22;45368;-84
2021/08/23 11:49:13;;;;;;;;;9.75;8.25;;;;;22.31;57.94;102031.00;6345663;22;45269;-87
2021/08/23 11:53:03;;;;;;;;;18.75;18.50;;;;;22.38;58.03;102034.38;6343097;22;47273;-87
2021/08/23 11:55:09;;;;;;;;;18.50;18.50;;;;;22.35;57.72;102021.94;6353771;22;45478;-87
2021/08/23 11:57:54;;;;;;;;;9.00;9.00;;;;;22.32;57.31;102027.41;6343821;22;45387;-86
2021/08/23 12:04:21;;;;;;;;;9.00;9.00;;;;;22.27;57.46;102021.31;6344075;22;45922;-85
2021/08/23 12:07:32;;;;;;;;;;;;;;;;;;;;;
2021/08/23 12:09:59;;;;;;;;;10.50;10.50;;;;;22.25;57.37;102020.47;6372058;22;68451;-85
2021/08/23 12:12:26;;;;;;;;;10.50;10.50;;;;;22.22;57.15;102021.44;6344367;22;45478;-83
2021/08/23 12:15:20;;;;;;;;;13.25;11.25;;;;;22.20;57.52;102019.72;6372674;22;45444;-87
2021/08/23 12:17:54;;;;;;;;;9.75;9.25;;;;;22.29;57.19;102022.09;6369628;22;45261;-85
2021/08/23 12:20:20;;;;;;;;;13.67;12.67;;;;;22.28;57.47;102012.31;6344982;22;45335;-85
2021/08/23 12:22:52;;;;;;;;;11.50;10.75;;;;;22.35;57.20;102015.69;6372203;22;45287;-83
2021/08/23 12:25:27;;;;;;;;;12.00;12.00;;;;;22.48;57.28;102016.13;6344116;22;47038;-83
2021/08/23 12:27:59;;;;;;;;;11.00;10.00;;;;;22.67;56.88;102023.53;6344691;22;45318;-83
2021/08/23 12:30:36;;;;;;;;;12.00;10.00;;;;;22.77;56.15;102023.22;6343463;22;45430;-83
2021/08/23 12:33:44;;;;;;;;;9.00;7.50;;;;;22.74;56.26;102012.59;6344993;22;45515;-83
2021/08/23 12:37:35;;;;;;;;;;;;;;;;;;;;;
2021/08/23 12:39:53;;;;;;;;;10.00;8.25;;;;;22.59;55.99;102016.69;6364869;22;45587;-82
2021/08/23 12:42:21;;;;;;;;;11.67;10.33;;;;;22.57;55.95;102018.53;6372176;22;45321;-82
2021/08/23 12:44:47;;;;;;;;;8.67;8.67;;;;;22.55;55.43;102013.19;6343528;22;45314;-81
2021/08/23 12:47:12;;;;;;;;;10.50;10.00;;;;;22.43;55.44;102006.44;6343167;22;46192;-81
2021/08/23 12:49:38;;;;;;;;;7.67;7.33;;;;;22.37;55.51;102013.81;6372210;22;45364;-81
2021/08/23 12:52:04;;;;;;;;;9.50;8.75;;;;;22.29;55.74;102013.19;6343879;22;45440;-82
2021/08/23 12:54:30;;;;;;;;;9.33;9.00;;;;;22.24;56.17;102021.41;6372809;22;45418;-81
2021/08/23 12:56:56;;;;;;;;;8.67;7.67;;;;;22.27;56.20;102021.31;6372918;22;46167;-81
2021/08/23 12:59:22;;;;;;;;;10.00;10.00;;;;;22.31;56.36;102008.66;6343616;22;45290;-82
2021/08/23 13:01:47;;;;;;;;;12.67;10.33;;;;;22.35;56.13;102013.00;6372064;22;45166;-81
2021/08/23 13:04:13;;;;;;;;;10.00;7.67;;;;;22.39;56.10;102010.16;6372341;22;45234;-81
2021/08/23 13:06:38;;;;;;;;;10.25;10.25;;;;;22.39;56.78;102011.97;6372229;22;45243;-81
2021/08/23 13:09:04;;;;;;;;;11.00;10.25;;;;;22.40;56.85;102013.69;6343480;22;45138;-81
2021/08/23 13:11:30;;;;;;;;;13.00;10.50;;;;;22.44;57.01;102018.94;6372969;22;45178;-81
2021/08/23 13:13:56;;;;;;;;;8.50;8.50;;;;;22.45;56.41;102006.38;6343969;22;45490;-81
2021/08/23 13:16:23;;;;;;;;;7.33;7.33;;;;;22.38;56.71;102007.53;6343995;22;46827;-82
2021/08/23 13:18:49;;;;;;;;;5.33;5.33;;;;;22.36;57.19;102017.44;6344259;22;45277;-81
2021/08/23 13:21:14;;;;;;;;;10.00;10.00;;;;;22.26;57.25;102007.91;6343565;22;45305;-81
2021/08/23 13:23:40;;;;;;;;;11.50;11.25;;;;;22.23;57.42;102014.25;6372541;22;45289;-81
2021/08/23 13:26:06;;;;;;;;;11.00;11.00;;;;;22.19;57.26;102007.25;6372518;22;45324;-81
2021/08/23 13:28:32;;;;;;;;;13.00;12.50;;;;;22.17;57.29;102015.31;6343882;22;45319;-81
2021/08/23 13:30:58;;;;;;;;;13.25;11.75;;;;;22.14;57.00;102006.50;6343761;22;45492;-81
2021/08/23 13:33:23;;;;;;;;;13.00;11.75;;;;;22.17;57.22;102012.63;6372531;22;45365;-81
2021/08/23 13:35:49;;;;;;;;;12.25;12.25;;;;;22.22;57.24;102012.53;6343713;22;47057;-80
2021/08/23 13:38:16;;;;;;;;;10.00;10.00;;;;;22.21;57.50;102006.28;6372601;22;45245;-81
2021/08/23 13:40:47;;;;;;;;;13.00;13.00;;;;;22.21;57.43;102002.69;6344219;22;45146;-81
2021/08/23 13:43:14;;;;;;;;;11.00;10.00;;;;;22.29;57.33;102002.44;6372447;22;45155;-80
2021/08/23 13:45:41;;;;;;;;;10.75;10.75;;;;;22.33;57.35;101998.75;6371939;22;45517;-81
2021/08/23 13:48:08;;;;;;;;;12.50;9.75;;;;;22.39;57.25;102002.09;6343279;22;45251;-81
2021/08/23 13:50:34;;;;;;;;;10.00;10.00;;;;;22.45;57.35;102004.59;6372511;22;45403;-80
2021/08/23 13:53:00;;;;;;;;;9.25;9.00;;;;;22.45;56.53;102001.91;6371951;22;45496;-80
2021/08/23 13:55:26;;;;;;;;;12.00;10.50;;;;;22.45;56.91;102007.28;6343110;22;47361;-80
2021/08/23 13:57:51;;;;;;;;;11.75;11.25;;;;;22.42;57.08;102001.13;6372072;22;45257;-80
2021/08/23 14:00:17;;;;;;;;;9.25;8.50;;;;;22.41;56.77;101996.69;6372289;22;45404;-80
2021/08/23 14:02:42;;;;;;;;;14.25;11.75;;;;;22.40;57.03;101997.59;6372872;22;45107;-80
2021/08/23 14:05:08;;;;;;;;;10.00;9.00;;;;;22.46;57.12;102003.66;6343905;22;46935;-81
2021/08/23 14:07:34;;;;;;;;;13.25;13.00;;;;;22.54;56.73;101991.81;6343524;22;45243;-80
2021/08/23 14:09:59;;;;;;;;;10.75;10.75;;;;;22.60;56.73;102002.31;6343412;22;45204;-81
2021/08/23 14:12:27;;;;;;;;;12.75;11.50;;;;;22.67;56.69;102001.19;6372252;22;45205;-81
2021/08/23 14:14:53;;;;;;;;;14.00;12.25;;;;;22.70;55.97;102001.09;6371316;22;45476;-82
2021/08/23 14:17:18;;;;;;;;;13.25;11.50;;;;;22.72;55.98;102001.00;6342704;22;45841;-79
2021/08/23 14:19:43;;;;;;;;;10.33;10.33;;;;;22.72;55.95;101999.22;6343617;22;45322;-80
2021/08/23 14:22:10;;;;;;;;;14.50;13.00;;;;;22.79;56.22;101995.38;6338603;22;45205;-79
2021/08/23 14:24:36;;;;;;;;;15.00;13.50;;;;;22.83;55.75;101991.66;6339023;22;45466;-79
2021/08/23 14:27:02;;;;;;;;;13.75;13.75;;;;;22.90;55.74;101995.88;6339781;22;45323;-80
2021/08/23 14:29:28;;;;;;;;;14.00;11.25;;;;;22.94;55.62;101993.09;6311157;22;45186;-80
2021/08/23 14:31:55;;;;;;;;;16.00;13.50;;;;;22.93;55.44;101992.19;6339802;22;45234;-79
2021/08/23 14:56:10;;;;;;;;;15.00;12.25;;;;;22.51;55.74;101995.47;5157834;27;45481;-83
2021/08/23 14:58:36;;;;;;;;;14.50;14.50;;;;;22.45;55.73;101991.19;5130880;27;45316;-82
2021/08/23 15:01:15;;;;;;;;;14.00;14.00;;;;;22.44;55.73;101997.47;5118789;27;45693;-86
2021/08/23 15:03:44;;;;;;;;;16.00;14.00;;;;;22.45;55.68;102004.59;5132063;27;45402;-86
2021/08/23 15:06:27;;;;;;;;;14.25;13.75;;;;;22.39;55.42;101996.72;5121858;27;47561;-89
2021/08/23 15:08:53;;;;;;;;;15.50;14.75;;;;;22.37;55.81;102003.06;5129769;27;45571;-85
2021/08/23 15:18:02;;;;;;;;;15.50;15.00;;;;;22.24;56.32;102013.34;5135120;27;45304;-83
2021/08/23 15:20:34;;;;;;;;;15.00;13.25;;;;;22.22;56.10;102005.34;5130723;27;45475;-86
2021/08/23 15:23:03;;;;;;;;;15.50;15.50;;;;;22.20;56.31;102007.19;5133717;27;45389;-81
2021/08/23 15:25:37;;;;;;;;;12.25;12.25;;;;;22.20;56.15;101996.47;5115973;27;45266;-80
2021/08/23 15:28:05;;;;;;;;;16.75;16.75;;;;;22.19;56.21;102002.75;5125649;27;46272;-80
2021/08/23 15:30:30;;;;;;;;;18.50;17.50;;;;;22.19;56.21;102002.75;5117536;27;45547;-79
2021/08/23 15:32:58;;;;;;;;;21.25;18.75;;;;;22.19;56.17;102008.13;5099643;27;45334;-81
2021/08/23 15:35:36;;;;;;;;;;;;;;;;;;;;;
2021/08/23 15:38:23;;;;;;;;;16.75;16.00;;;;;22.17;56.36;102009.06;5129495;27;75241;-81
2021/08/23 15:40:51;;;;;;;;;12.00;12.00;;;;;22.14;56.70;102010.03;5126969;27;45397;-81
2021/08/23 16:52:05;;;;;;;;;15.75;15.00;;;;;22.46;54.32;101997.41;5043594;28;45758;-82
2021/08/23 17:29:16;;;;;;;;;;;;;;;;;;;;;
2021/08/23 17:50:56;;;;;;;;;12.75;12.00;;;;;23.51;51.44;102006.22;4994574;28;44882;-93
2021/08/23 17:54:15;;;;;;;;;;;;;;;;;;;;;
2021/08/23 18:06:34;;;;;;;;;;;;;;;;;;;;;
2021/08/23 18:09:10;;;;;;;;;13.25;11.50;;;;;23.16;51.43;102022.78;5035379;28;71575;-94
2021/08/23 18:19:08;;;;;;;;;14.25;12.75;;;;;22.51;52.73;102025.00;4919545;28;44934;-96
2021/08/23 18:21:45;;;;;;;;;13.75;13.50;;;;;22.36;53.08;102025.47;4911783;28;45444;-92
2021/08/23 18:24:34;;;;;;;;;10.00;9.50;;;;;22.25;53.45;102033.88;4948986;28;45231;-95
2021/08/23 18:33:30;;;;;;;;;13.50;13.50;;;;;21.83;54.25;102033.38;4900581;29;45493;-84
2021/08/23 18:40:19;;;;;;;;;;;;;;;;;;;;;
2021/08/23 18:42:56;;;;;;;;;16.00;14.25;;;;;21.35;55.39;102046.28;4839693;29;75292;-86
2021/08/23 19:12:16;;;;;;;;;;;;;;;;;;;;;
2021/08/23 19:18:33;;;;;;;;;13.75;10.75;;;;;20.37;58.44;102063.94;4932304;28;45160;-90
2021/08/23 19:21:02;;;;;;;;;13.25;12.50;;;;;20.31;58.79;102073.00;4934881;28;44801;-91
2021/08/23 19:23:29;;;;;;;;;14.00;13.75;;;;;20.27;58.86;102074.00;4945215;28;45592;-92
2021/08/23 19:26:04;;;;;;;;;;;;;;;;;;;;;
2021/08/23 19:29:30;;;;;;;;;;;;;;;;;;;;;
2021/08/23 19:32:32;;;;;;;;;;;;;;;;;;;;;
2021/08/23 19:35:37;;;;;;;;;;;;;;;;;;;;;
2021/08/23 19:39:21;;;;;;;;;8.50;8.00;;;;;20.10;59.49;102094.88;5020900;28;72700;-89
2021/08/23 19:42:28;;;;;;;;;;;;;;;;;;;;;
2021/08/23 19:45:09;;;;;;;;;;;;;;;;;;;;;
2021/08/23 19:47:47;;;;;;;;;;;;;;;;;;;;;
2021/08/23 19:50:46;;;;;;;;;9.67;8.00;;;;;19.99;59.43;102100.47;5025055;28;72189;-89
2021/08/23 19:53:16;;;;;;;;;7.50;7.50;;;;;19.95;60.00;102105.00;5012642;28;46961;-89
2021/08/23 19:56:25;;;;;;;;;;;;;;;;;;;;;
2021/08/23 19:59:27;;;;;;;;;;;;;;;;;;;;;
2021/08/23 20:02:25;;;;;;;;;;;;;;;;;;;;;
2021/08/23 20:05:26;;;;;;;;;;;;;;;;;;;;;
2021/08/23 20:15:09;;;;;;;;;;;;;;;;;;;;;
2021/08/23 20:18:39;;;;;;;;;;;;;;;;;;;;;
2021/08/23 20:28:42;;;;;;;;;;;;;;;;;;;;;
2021/08/23 20:32:04;;;;;;;;;;;;;;;;;;;;;
2021/08/23 20:49:40;;;;;;;;;7.00;7.00;;;;;19.83;59.44;102121.28;4824011;29;45651;-87
2021/08/23 20:53:15;;;;;;;;;8.33;6.67;;;;;19.78;59.45;102109.78;4829995;29;45609;-91
2021/08/23 20:58:43;;;;;;;;;8.00;7.33;;;;;19.76;59.03;102119.66;4843873;29;45668;-88
2021/08/23 21:01:13;;;;;;;;;6.50;6.00;;;;;19.80;58.99;102129.34;4827000;29;45385;-87
2021/08/23 21:03:42;;;;;;;;;6.00;6.00;;;;;19.76;59.23;102119.66;4873557;29;45566;-90
2021/08/23 21:07:05;;;;;;;;;7.67;6.67;;;;;19.74;59.04;102116.13;4974102;28;45356;-86
2021/08/23 21:10:15;;;;;;;;;7.00;7.00;;;;;19.76;59.48;102119.66;4954537;28;46110;-86
2021/08/23 21:12:40;;;;;;;;;7.25;7.25;;;;;19.74;59.49;102121.47;5007494;28;45518;-88
2021/08/23 21:15:07;;;;;;;;;5.75;5.75;;;;;19.73;59.50;102115.25;5019755;28;45941;-88
2021/08/23 21:17:33;;;;;;;;;8.75;8.25;;;;;19.74;59.29;102125.03;5009441;28;45549;-86
2021/08/23 21:19:59;;;;;;;;;4.00;4.00;;;;;19.72;59.75;102128.63;5010717;28;47178;-88
2021/08/23 21:22:24;;;;;;;;;7.75;6.50;;;;;19.64;59.33;102120.72;5020190;28;45522;-87
2021/08/23 21:24:50;;;;;;;;;8.75;7.00;;;;;19.61;59.83;102113.66;5030041;28;45451;-90
2021/08/23 21:27:15;;;;;;;;;6.00;6.00;;;;;19.64;59.67;102118.06;5020688;28;45717;-90
2021/08/23 21:29:41;;;;;;;;;7.50;7.50;;;;;19.54;60.09;102112.03;5009062;28;46986;-88
2021/08/23 21:32:06;;;;;;;;;8.00;7.75;;;;;19.52;60.47;102110.28;5009514;28;45743;-88
2021/08/23 21:34:32;;;;;;;;;9.00;7.67;;;;;19.55;60.36;102116.44;5005367;28;45369;-89
2021/08/23 21:37:00;;;;;;;;;6.75;6.75;;;;;19.51;60.28;102121.88;5012716;28;45377;-88
2021/08/23 21:39:25;;;;;;;;;6.75;6.50;;;;;19.48;60.16;102113.91;5029348;28;47086;-89
2021/08/23 21:41:51;;;;;;;;;5.67;5.67;;;;;19.46;60.17;102108.63;5007546;28;45553;-88
2021/08/23 21:44:16;;;;;;;;;7.00;7.00;;;;;19.48;60.59;102125.47;5019690;28;45530;-89
2021/08/23 21:46:43;;;;;;;;;7.00;6.00;;;;;19.45;60.88;102125.53;5004765;28;45691;-88
2021/08/23 21:56:54;;;;;;;;;5.50;4.25;;;;;19.36;61.08;102120.38;5843452;22;45239;-77
2021/08/23 21:59:19;;;;;;;;;7.67;7.67;;;;;19.33;61.39;102126.66;4993024;28;45523;-79
2021/08/23 22:01:47;;;;;;;;;7.33;7.00;;;;;19.28;60.83;102120.53;4997684;28;45493;-79
2021/08/23 22:04:18;;;;;;;;;9.33;8.00;;;;;19.23;61.14;102124.19;4979153;28;45431;-79
2021/08/23 22:06:43;;;;;;;;;4.33;4.00;;;;;19.24;61.55;102125.94;4973265;28;45888;-79
2021/08/23 22:09:09;;;;;;;;;8.25;6.25;;;;;19.22;61.49;102125.97;4979964;28;47191;-79
2021/08/23 22:11:34;;;;;;;;;9.00;9.00;;;;;19.20;60.92;102127.78;4997472;28;45741;-79
2021/08/23 22:13:59;;;;;;;;;5.50;5.25;;;;;19.26;61.46;102130.34;4992100;28;46007;-79
2021/08/23 22:16:25;;;;;;;;;9.25;9.00;;;;;19.21;61.17;102137.53;4996807;28;45461;-79
2021/08/23 22:18:50;;;;;;;;;9.50;6.50;;;;;19.21;61.18;102132.22;5011501;28;46029;-78
2021/08/23 22:21:16;;;;;;;;;8.75;7.75;;;;;19.26;61.69;102145.47;4977496;28;45658;-79
2021/08/23 22:23:44;;;;;;;;;7.75;5.75;;;;;19.25;61.46;102131.25;4985400;28;45360;-79
2021/08/23 22:26:11;;;;;;;;;10.50;7.75;;;;;19.23;61.18;102133.06;4997058;28;45484;-79
2021/08/23 22:28:37;;;;;;;;;8.25;7.25;;;;;19.24;60.98;102132.16;4997666;28;45831;-80
2021/08/23 22:31:03;;;;;;;;;4.75;4.75;;;;;19.22;61.69;102134.00;4978358;28;45786;-80
2021/08/23 22:33:32;;;;;;;;;7.00;6.00;;;;;19.22;61.75;102141.09;4969126;28;45564;-80
2021/08/23 22:35:58;;;;;;;;;5.75;4.50;;;;;19.24;61.75;102147.28;4990895;28;45576;-79
2021/08/23 22:38:24;;;;;;;;;9.00;7.00;;;;;19.23;61.63;102143.75;4989791;28;46537;-79
2021/08/23 22:40:50;;;;;;;;;6.00;6.00;;;;;19.22;61.79;102133.09;4997651;28;45717;-79
2021/08/23 22:43:15;;;;;;;;;7.25;6.25;;;;;19.23;61.53;102145.53;4967397;28;45474;-79
2021/08/23 22:45:41;;;;;;;;;7.00;5.75;;;;;19.22;61.67;102135.75;4997141;28;45540;-78
2021/08/23 22:48:08;;;;;;;;;9.50;6.25;;;;;19.21;61.87;102144.69;4997368;28;45496;-77
2021/08/23 22:50:34;;;;;;;;;8.50;7.25;;;;;19.16;62.31;102132.31;4995687;28;45534;-78
2021/08/23 22:52:59;;;;;;;;;6.75;6.50;;;;;19.12;62.13;102129.72;4979642;28;45709;-78
2021/08/23 22:55:25;;;;;;;;;7.67;7.67;;;;;19.04;62.27;102124.50;4979210;28;45492;-78
2021/08/23 22:57:50;;;;;;;;;9.50;9.50;;;;;18.97;62.61;102121.94;4973635;28;47223;-78
2021/08/23 23:00:19;;;;;;;;;7.00;7.00;;;;;18.94;62.89;102134.44;4976077;28;45577;-78
2021/08/23 23:02:44;;;;;;;;;11.75;10.50;;;;;18.86;62.59;102120.31;4976026;28;45427;-78
2021/08/23 23:05:12;;;;;;;;;9.25;7.75;;;;;18.85;63.05;102128.38;4971765;28;45938;-78
2021/08/23 23:07:38;;;;;;;;;7.00;7.00;;;;;18.83;62.86;102124.84;4975935;28;47410;-77
2021/08/23 23:10:06;;;;;;;;;5.75;5.75;;;;;18.79;63.36;102128.44;4973458;28;45525;-77
2021/08/23 23:12:31;;;;;;;;;7.25;6.00;;;;;18.75;63.15;102137.44;4991675;28;45569;-78
2021/08/23 23:14:57;;;;;;;;;11.25;7.75;;;;;18.67;63.54;102129.50;4975455;28;45622;-78
2021/08/23 23:17:22;;;;;;;;;9.00;8.00;;;;;18.66;63.49;102138.41;4995040;28;48220;-77
2021/08/23 23:19:48;;;;;;;;;9.00;8.67;;;;;18.59;63.80;102120.72;4980880;28;45679;-77
2021/08/23 23:22:13;;;;;;;;;10.33;9.33;;;;;18.55;63.88;102116.34;4976678;28;45795;-78
2021/08/23 23:24:43;;;;;;;;;10.00;10.00;;;;;18.46;64.47;102118.22;4980213;28;45373;-78
2021/08/23 23:27:09;;;;;;;;;11.50;11.50;;;;;18.39;65.01;102110.34;4978701;28;46478;-78
2021/08/23 23:29:34;;;;;;;;;11.00;10.25;;;;;18.33;65.09;102111.31;4980643;28;45444;-78
2021/08/23 23:32:00;;;;;;;;;9.50;9.50;;;;;18.30;65.10;102117.56;4973178;28;45494;-77
2021/08/23 23:34:25;;;;;;;;;11.00;9.75;;;;;18.28;65.25;102122.06;4975560;28;45686;-77
2021/08/23 23:36:50;;;;;;;;;12.75;10.50;;;;;18.27;65.02;102119.41;4975552;28;46184;-77
2021/08/23 23:39:16;;;;;;;;;13.25;11.00;;;;;18.28;64.92;102118.50;4977213;28;45550;-79
2021/08/23 23:41:41;;;;;;;;;9.25;8.50;;;;;18.29;65.14;102123.81;4976470;28;45417;-78
2021/08/23 23:44:07;;;;;;;;;13.25;11.25;;;;;18.30;65.04;102122.03;4981480;28;45671;-79
2021/08/23 23:46:33;;;;;;;;;12.00;11.00;;;;;18.29;65.12;102118.47;4965336;28;45962;-80
2021/08/23 23:48:58;;;;;;;;;9.75;8.75;;;;;18.33;65.37;102113.97;4974181;28;45504;-79
2021/08/23 23:51:23;;;;;;;;;12.75;12.00;;;;;18.29;65.67;102109.59;4982786;28;45320;-79
2021/08/23 23:53:49;;;;;;;;;15.25;12.50;;;;;18.28;66.01;102119.41;4981336;28;45479;-79
2021/08/23 23:56:14;;;;;;;;;12.50;10.50;;;;;18.26;65.51;102101.66;4977376;28;46671;-79
2021/08/23 23:58:40;;;;;;;;;10.00;10.00;;;;;18.25;65.60;102103.41;4993667;28;45329;-79
